Time;durP1;ratioP1;P1;durP2;ratioP2;P2;SDS_P1;SDS_P2;PMS_P1;PMS_P2;Temp;Humidity;BMP_temperature;BMP_pressure;BME280_temperature;BME280_humidity;BME280_pressure;Samples;Min_cycle;Max_cycle;Signal;HPM_P1;HPM_P2
2023/04/12 00:00:54;;;;;;;4.57;2.30;;;;;;;;;;4996806;28;20613;-73
2023/04/12 00:03:21;;;;;;;6.40;2.17;;;;;;;;;;4996678;28;20093;-74
2023/04/12 00:05:53;;;;;;;4.50;2.17;;;;;;;;;;4996959;28;20053;-73
2023/04/12 00:08:25;;;;;;;6.63;2.10;;;;;;;;;;5012901;28;20049;-73
2023/04/12 00:10:52;;;;;;;6.05;1.80;;;;;;;;;;4980511;28;20060;-73
2023/04/12 00:13:19;;;;;;;7.82;2.55;;;;;;;;;;4996338;28;20050;-73
2023/04/12 00:15:46;;;;;;;6.05;2.42;;;;;;;;;;4996126;28;20054;-73
2023/04/12 00:18:12;;;;;;;6.25;2.30;;;;;;;;;;4996307;28;20465;-73
2023/04/12 00:20:39;;;;;;;4.57;2.42;;;;;;;;;;4996126;28;20068;-73
2023/04/12 00:23:08;;;;;;;5.78;1.90;;;;;;;;;;4996141;28;20061;-73
2023/04/12 00:25:38;;;;;;;4.22;1.88;;;;;;;;;;4996234;28;20053;-73
2023/04/12 00:28:05;;;;;;;5.45;2.65;;;;;;;;;;4996194;28;20064;-73
2023/04/12 00:30:32;;;;;;;3.22;1.88;;;;;;;;;;4995849;28;20052;-73
2023/04/12 00:32:58;;;;;;;7.28;1.90;;;;;;;;;;4996108;28;20064;-73
2023/04/12 00:35:25;;;;;;;6.10;1.98;;;;;;;;;;4995903;28;20050;-73
2023/04/12 00:37:52;;;;;;;4.22;2.00;;;;;;;;;;4995894;28;20053;-73
2023/04/12 00:40:19;;;;;;;6.90;2.17;;;;;;;;;;4995778;28;20045;-73
2023/04/12 00:42:45;;;;;;;5.95;2.40;;;;;;;;;;5013319;28;20054;-73
2023/04/12 00:45:13;;;;;;;4.72;2.00;;;;;;;;;;4995726;28;20054;-73
2023/04/12 00:47:41;;;;;;;3.15;2.17;;;;;;;;;;4995875;28;20058;-72
2023/04/12 00:50:09;;;;;;;5.38;2.40;;;;;;;;;;4995677;28;20058;-73
2023/04/12 00:52:36;;;;;;;8.45;1.90;;;;;;;;;;4979806;28;20422;-73
2023/04/12 00:55:03;;;;;;;5.13;1.98;;;;;;;;;;5011993;28;20060;-73
2023/04/12 00:57:38;;;;;;;7.40;2.25;;;;;;;;;;4995694;28;20517;-73
2023/04/12 01:00:07;;;;;;;7.38;1.80;;;;;;;;;;4995494;28;20060;-73
2023/04/12 01:02:34;;;;;;;5.00;1.83;;;;;;;;;;4995866;28;20058;-72
2023/04/12 01:05:01;;;;;;;7.22;1.98;;;;;;;;;;4995795;28;20050;-73
2023/04/12 01:07:27;;;;;;;2.72;1.60;;;;;;;;;;4995500;28;20104;-73
2023/04/12 01:09:57;;;;;;;7.63;2.00;;;;;;;;;;4994898;28;20065;-73
2023/04/12 01:12:24;;;;;;;3.13;1.52;;;;;;;;;;4995296;28;20461;-73
2023/04/12 01:15:02;;;;;;;3.33;1.70;;;;;;;;;;4995432;28;20421;-73
2023/04/12 01:17:30;;;;;;;7.30;1.90;;;;;;;;;;4995319;28;20056;-73
2023/04/12 01:20:12;;;;;;;2.75;1.50;;;;;;;;;;4995004;28;20056;-73
2023/04/12 01:23:07;;;;;;;4.10;1.70;;;;;;;;;;4994945;28;20049;-73
2023/04/12 01:25:40;;;;;;;3.25;1.58;;;;;;;;;;4994848;28;20054;-73
2023/04/12 01:28:08;;;;;;;;;;;;;;;;;;4995596;28;20050;-73
2023/04/12 01:30:35;;;;;;;3.95;2.05;;;;;;;;;;4978612;28;19944;-73
2023/04/12 01:33:04;;;;;;;5.40;1.80;;;;;;;;;;4978876;28;20067;-73
2023/04/12 01:35:31;;;;;;;6.70;2.00;;;;;;;;;;4994876;28;20100;-73
2023/04/12 01:38:00;;;;;;;8.07;2.00;;;;;;;;;;4995355;28;20062;-73
2023/04/12 01:40:28;;;;;;;5.55;1.40;;;;;;;;;;4978634;28;20057;-73
2023/04/12 01:43:08;;;;;;;4.93;1.92;;;;;;;;;;4994642;28;20394;-73
2023/04/12 01:45:35;;;;;;;6.78;2.20;;;;;;;;;;4995111;28;20517;-73
2023/04/12 01:48:04;;;;;;;6.65;1.80;;;;;;;;;;4994811;28;20137;-73
2023/04/12 01:50:51;;;;;;;6.25;1.92;;;;;;;;;;5010515;28;20053;-73
2023/04/12 01:53:48;;;;;;;4.63;1.83;;;;;;;;;;4994488;28;20060;-73
2023/04/12 01:56:16;;;;;;;5.68;2.38;;;;;;;;;;4994349;28;20089;-73
2023/04/12 01:58:43;;;;;;;7.50;3.25;;;;;;;;;;4994264;28;20053;-73
2023/04/12 02:01:11;;;;;;;6.20;2.55;;;;;;;;;;4994219;28;20065;-73
2023/04/12 02:03:41;;;;;;;7.18;2.10;;;;;;;;;;4978435;28;20480;-74
2023/04/12 02:06:08;;;;;;;3.75;2.10;;;;;;;;;;4978795;28;20061;-73
2023/04/12 02:08:36;;;;;;;4.97;2.28;;;;;;;;;;4994249;28;20060;-73
2023/04/12 02:11:13;;;;;;;4.13;2.20;;;;;;;;;;4993946;28;20054;-73
2023/04/12 02:13:40;;;;;;;7.55;2.47;;;;;;;;;;4994240;28;20136;-73
2023/04/12 02:16:09;;;;;;;5.75;2.55;;;;;;;;;;4994121;28;20503;-73
2023/04/12 02:18:36;;;;;;;8.07;3.00;;;;;;;;;;4994099;28;20073;-73
2023/04/12 02:21:03;;;;;;;9.80;2.83;;;;;;;;;;5009629;28;20085;-73
2023/04/12 02:23:30;;;;;;;5.70;2.38;;;;;;;;;;4993637;28;20083;-73
2023/04/12 02:25:57;;;;;;;6.47;2.33;;;;;;;;;;4994232;28;20054;-73
2023/04/12 02:28:23;;;;;;;6.68;2.45;;;;;;;;;;4993839;28;20058;-73
2023/04/12 02:30:52;;;;;;;7.18;3.30;;;;;;;;;;4993685;28;20053;-73
2023/04/12 02:33:20;;;;;;;5.00;2.25;;;;;;;;;;4993930;28;20418;-74
2023/04/12 02:35:47;;;;;;;8.48;2.55;;;;;;;;;;4995284;28;20520;-73
2023/04/12 02:38:13;;;;;;;5.30;2.30;;;;;;;;;;4994070;28;20053;-74
2023/04/12 02:40:41;;;;;;;3.30;2.20;;;;;;;;;;4993560;28;20046;-73
2023/04/12 02:43:08;;;;;;;5.30;2.63;;;;;;;;;;4993701;28;20049;-73
2023/04/12 02:45:35;;;;;;;8.30;2.30;;;;;;;;;;5009841;28;20053;-73
2023/04/12 02:48:04;;;;;;;5.63;2.83;;;;;;;;;;4993653;28;20054;-73
2023/04/12 02:50:30;;;;;;;6.65;2.80;;;;;;;;;;4993402;28;20053;-73
2023/04/12 02:52:57;;;;;;;3.63;2.20;;;;;;;;;;4977405;28;20057;-73
2023/04/12 02:55:24;;;;;;;5.75;2.33;;;;;;;;;;4993586;28;20057;-74
2023/04/12 02:57:52;;;;;;;8.05;2.40;;;;;;;;;;4993553;28;20136;-73
2023/04/12 03:00:20;;;;;;;4.65;2.78;;;;;;;;;;5009803;28;20128;-74
2023/04/12 03:02:49;;;;;;;5.53;2.63;;;;;;;;;;4994599;28;20061;-73
2023/04/12 03:05:17;;;;;;;6.47;3.17;;;;;;;;;;4995648;28;20053;-73
2023/04/12 03:07:44;;;;;;;8.73;3.45;;;;;;;;;;4995673;28;20053;-73
2023/04/12 03:10:12;;;;;;;5.30;2.90;;;;;;;;;;4999116;28;20101;-73
2023/04/12 03:12:38;;;;;;;7.45;2.78;;;;;;;;;;5014951;28;20133;-73
2023/04/12 03:15:06;;;;;;;6.13;2.33;;;;;;;;;;4994065;28;20098;-73
2023/04/12 03:17:32;;;;;;;9.07;2.58;;;;;;;;;;4993746;28;20056;-73
2023/04/12 03:20:08;;;;;;;7.57;2.58;;;;;;;;;;4993229;28;20053;-73
2023/04/12 03:22:36;;;;;;;4.82;2.53;;;;;;;;;;4993553;28;20058;-73
2023/04/12 03:25:06;;;;;;;5.53;2.33;;;;;;;;;;4993379;28;20140;-73
2023/04/12 03:27:32;;;;;;;6.68;3.00;;;;;;;;;;4993645;28;20054;-74
2023/04/12 03:29:59;;;;;;;7.32;2.65;;;;;;;;;;4993323;28;20421;-73
2023/04/12 03:32:26;;;;;;;6.88;2.53;;;;;;;;;;4993081;28;20050;-73
2023/04/12 03:34:54;;;;;;;7.38;3.22;;;;;;;;;;4996452;28;20053;-73
2023/04/12 03:37:20;;;;;;;7.82;2.60;;;;;;;;;;4997239;28;20413;-73
2023/04/12 03:39:47;;;;;;;8.75;3.30;;;;;;;;;;4996838;28;20098;-73
2023/04/12 03:42:14;;;;;;;7.50;3.10;;;;;;;;;;4996828;28;20056;-74
2023/04/12 03:44:58;;;;;;;9.57;2.88;;;;;;;;;;4999355;28;20049;-73
2023/04/12 03:47:25;;;;;;;7.28;2.95;;;;;;;;;;4997041;28;20060;-73
2023/04/12 03:49:54;;;;;;;6.00;3.30;;;;;;;;;;4980914;28;20093;-73
2023/04/12 03:52:37;;;;;;;4.65;2.70;;;;;;;;;;5006255;28;20053;-73
2023/04/12 03:55:06;;;;;;;8.48;2.65;;;;;;;;;;4985898;28;20061;-74
2023/04/12 03:57:33;;;;;;;11.48;2.45;;;;;;;;;;4996780;28;20054;-73
2023/04/12 04:00:01;;;;;;;5.38;2.25;;;;;;;;;;4996447;28;20057;-73
2023/04/12 04:02:28;;;;;;;5.35;2.83;;;;;;;;;;4996528;28;20417;-74
2023/04/12 04:04:55;;;;;;;3.70;1.90;;;;;;;;;;4996734;28;20453;-73
2023/04/12 04:07:22;;;;;;;7.38;2.00;;;;;;;;;;4996608;28;20089;-73
2023/04/12 04:09:49;;;;;;;4.43;2.17;;;;;;;;;;4996282;28;20137;-73
2023/04/12 04:12:15;;;;;;;6.32;2.28;;;;;;;;;;4980063;28;20465;-73
2023/04/12 04:14:42;;;;;;;6.40;2.30;;;;;;;;;;4996105;28;20570;-73
2023/04/12 04:17:09;;;;;;;4.82;2.25;;;;;;;;;;4996544;28;20054;-74
2023/04/12 04:19:36;;;;;;;6.90;2.40;;;;;;;;;;4996365;28;20050;-74
2023/04/12 04:22:03;;;;;;;5.63;2.28;;;;;;;;;;4996036;28;20104;-74
2023/04/12 04:24:30;;;;;;;7.03;2.25;;;;;;;;;;5013364;28;20157;-74
2023/04/12 04:26:57;;;;;;;6.07;2.50;;;;;;;;;;4980344;28;20058;-73
2023/04/12 04:29:24;;;;;;;3.08;2.17;;;;;;;;;;4996214;28;20054;-73
2023/04/12 04:31:52;;;;;;;6.22;2.67;;;;;;;;;;4996143;28;20393;-73
2023/04/12 04:34:20;;;;;;;3.47;2.40;;;;;;;;;;4996212;28;20050;-74
2023/04/12 04:36:47;;;;;;;6.43;2.50;;;;;;;;;;4995990;28;20046;-74
2023/04/12 04:39:14;;;;;;;4.80;3.05;;;;;;;;;;4995886;28;20410;-73
2023/04/12 04:41:41;;;;;;;8.55;3.60;;;;;;;;;;5013037;28;20454;-73
2023/04/12 04:44:08;;;;;;;7.30;4.47;;;;;;;;;;4995453;28;20057;-74
2023/04/12 04:46:36;;;;;;;3.80;2.83;;;;;;;;;;4995865;28;20058;-74
2023/04/12 04:49:04;;;;;;;7.32;3.03;;;;;;;;;;4995591;28;20054;-74
2023/04/12 04:51:31;;;;;;;4.45;2.90;;;;;;;;;;5011573;28;20058;-73
2023/04/12 04:53:58;;;;;;;6.00;2.50;;;;;;;;;;4995652;28;20421;-73
2023/04/12 04:56:25;;;;;;;8.27;2.70;;;;;;;;;;4995573;28;20058;-74
2023/04/12 04:58:51;;;;;;;6.85;3.20;;;;;;;;;;4995631;28;20411;-73
2023/04/12 05:01:26;;;;;;;5.10;2.47;;;;;;;;;;4995887;28;20137;-73
2023/04/12 05:03:54;;;;;;;3.70;2.70;;;;;;;;;;4995532;28;20502;-73
2023/04/12 05:06:21;;;;;;;7.63;2.90;;;;;;;;;;4995451;28;20053;-73
2023/04/12 05:08:48;;;;;;;5.32;2.70;;;;;;;;;;4995389;28;20145;-73
2023/04/12 05:11:15;;;;;;;6.82;2.90;;;;;;;;;;4995105;28;20050;-74
2023/04/12 05:13:42;;;;;;;6.05;3.03;;;;;;;;;;4979106;28;20054;-74
2023/04/12 05:16:10;;;;;;;8.05;2.80;;;;;;;;;;4995089;28;20141;-74
2023/04/12 05:18:37;;;;;;;6.72;3.30;;;;;;;;;;4995125;28;20104;-73
2023/04/12 05:21:04;;;;;;;6.35;2.95;;;;;;;;;;4994771;28;20050;-73
2023/04/12 05:23:34;;;;;;;8.32;2.85;;;;;;;;;;4995056;28;20137;-74
2023/04/12 05:26:01;;;;;;;10.68;2.70;;;;;;;;;;4995239;28;20053;-74
2023/04/12 05:28:28;;;;;;;7.82;3.05;;;;;;;;;;4995122;28;20064;-74
2023/04/12 05:30:55;;;;;;;4.70;2.80;;;;;;;;;;4994528;28;20046;-74
2023/04/12 05:33:21;;;;;;;11.05;3.70;;;;;;;;;;4994807;28;20069;-74
2023/04/12 05:35:48;;;;;;;7.28;3.70;;;;;;;;;;4994881;28;20490;-74
2023/04/12 05:38:15;;;;;;;7.80;4.72;;;;;;;;;;4994961;28;20054;-74
2023/04/12 05:40:45;;;;;;;10.05;4.38;;;;;;;;;;4994471;28;20140;-74
2023/04/12 05:43:11;;;;;;;7.55;3.67;;;;;;;;;;4978737;28;20063;-74
2023/04/12 05:45:40;;;;;;;7.40;3.33;;;;;;;;;;4994478;28;20050;-74
2023/04/12 05:48:07;;;;;;;4.95;3.08;;;;;;;;;;4994756;28;20148;-73
2023/04/12 05:50:34;;;;;;;7.95;3.95;;;;;;;;;;4994910;28;20417;-74
2023/04/12 05:53:01;;;;;;;7.47;3.95;;;;;;;;;;4994301;28;20054;-74
2023/04/12 05:55:28;;;;;;;16.00;5.43;;;;;;;;;;5010627;28;20054;-74
2023/04/12 05:57:56;;;;;;;6.93;4.00;;;;;;;;;;4994120;28;20054;-74
2023/04/12 06:00:23;;;;;;;7.63;3.90;;;;;;;;;;4993971;28;20064;-74
2023/04/12 06:02:51;;;;;;;11.10;3.63;;;;;;;;;;4994604;28;20438;-74
2023/04/12 06:05:18;;;;;;;7.57;3.60;;;;;;;;;;4962572;28;20533;-74
2023/04/12 06:07:45;;;;;;;7.72;3.78;;;;;;;;;;4994033;28;20460;-74
2023/04/12 06:10:15;;;;;;;6.03;3.90;;;;;;;;;;4978253;28;20054;-74
2023/04/12 06:12:43;;;;;;;9.43;4.95;;;;;;;;;;4994142;28;20045;-74
2023/04/12 06:15:10;;;;;;;8.60;4.60;;;;;;;;;;4994168;28;20140;-73
2023/04/12 06:17:37;;;;;;;9.38;4.32;;;;;;;;;;5011717;28;20057;-74
2023/04/12 06:20:08;;;;;;;6.45;3.47;;;;;;;;;;4994053;28;20049;-74
2023/04/12 06:22:35;;;;;;;7.90;3.40;;;;;;;;;;4993855;28;20053;-73
2023/04/12 06:25:02;;;;;;;4.45;2.85;;;;;;;;;;4994057;28;20128;-74
2023/04/12 06:27:29;;;;;;;5.43;3.65;;;;;;;;;;4993947;28;20054;-74
2023/04/12 06:29:56;;;;;;;6.53;4.20;;;;;;;;;;4994091;28;20671;-74
2023/04/12 06:32:23;;;;;;;6.65;3.80;;;;;;;;;;4993571;28;20046;-74
2023/04/12 06:34:50;;;;;;;5.63;3.47;;;;;;;;;;4994007;28;20049;-74
2023/04/12 06:37:17;;;;;;;8.02;5.05;;;;;;;;;;4961868;28;20089;-74
2023/04/12 06:39:43;;;;;;;7.57;4.07;;;;;;;;;;4993710;28;20064;-74
2023/04/12 06:42:10;;;;;;;11.77;4.80;;;;;;;;;;4993545;28;20053;-74
2023/04/12 06:44:40;;;;;;;9.82;4.72;;;;;;;;;;4994367;28;20475;-74
2023/04/12 06:47:07;;;;;;;9.00;3.58;;;;;;;;;;4993965;28;20425;-74
2023/04/12 06:49:34;;;;;;;5.85;3.35;;;;;;;;;;4977786;28;20064;-74
2023/04/12 06:52:01;;;;;;;6.30;3.58;;;;;;;;;;4993445;28;20465;-74
2023/04/12 06:54:27;;;;;;;7.45;3.45;;;;;;;;;;5010178;28;20491;-74
2023/04/12 06:56:56;;;;;;;5.88;3.67;;;;;;;;;;4993803;28;20104;-74
2023/04/12 06:59:23;;;;;;;4.00;2.90;;;;;;;;;;4994089;28;20391;-74
2023/04/12 07:01:50;;;;;;;7.00;3.53;;;;;;;;;;4993501;28;20061;-74
2023/04/12 07:04:16;;;;;;;6.85;3.80;;;;;;;;;;4993754;28;20100;-73
2023/04/12 07:06:43;;;;;;;7.28;4.25;;;;;;;;;;4993910;28;20050;-74
2023/04/12 07:09:10;;;;;;;8.23;4.57;;;;;;;;;;4997232;28;20456;-74
2023/04/12 07:11:37;;;;;;;6.53;3.25;;;;;;;;;;4981080;28;20092;-74
2023/04/12 07:14:04;;;;;;;8.60;3.03;;;;;;;;;;4997737;28;20092;-74
2023/04/12 07:16:31;;;;;;;5.15;2.47;;;;;;;;;;4997351;28;20137;-74
2023/04/12 07:18:59;;;;;;;3.65;2.22;;;;;;;;;;4997414;28;20062;-74
2023/04/12 07:21:26;;;;;;;2.17;1.98;;;;;;;;;;4997062;28;20053;-74
2023/04/12 07:23:54;;;;;;;2.42;1.80;;;;;;;;;;5013272;28;20053;-74
2023/04/12 07:26:22;;;;;;;2.40;1.23;;;;;;;;;;4997538;28;20108;-74
2023/04/12 07:28:48;;;;;;;1.95;1.70;;;;;;;;;;4997205;28;20145;-74
2023/04/12 07:31:15;;;;;;;2.45;1.23;;;;;;;;;;4997068;28;20137;-74
2023/04/12 07:33:43;;;;;;;1.67;1.10;;;;;;;;;;4997165;28;20058;-74
2023/04/12 07:36:10;;;;;;;3.03;1.75;;;;;;;;;;4997137;28;20073;-74
2023/04/12 07:38:37;;;;;;;4.38;1.00;;;;;;;;;;4997069;28;20494;-74
2023/04/12 07:41:04;;;;;;;3.42;1.95;;;;;;;;;;4996768;28;20099;-74
2023/04/12 07:43:31;;;;;;;1.80;1.13;;;;;;;;;;4996954;28;20493;-74
2023/04/12 07:45:58;;;;;;;5.72;1.77;;;;;;;;;;4997128;28;20054;-74
2023/04/12 07:48:25;;;;;;;1.65;1.20;;;;;;;;;;4996931;28;20053;-73
2023/04/12 07:50:51;;;;;;;1.65;1.00;;;;;;;;;;4980411;28;20054;-74
2023/04/12 07:53:21;;;;;;;1.42;0.88;;;;;;;;;;4996642;28;20085;-74
2023/04/12 07:55:48;;;;;;;2.58;1.23;;;;;;;;;;4996767;28;20418;-74
2023/04/12 07:58:16;;;;;;;1.55;1.25;;;;;;;;;;4996613;28;20069;-74
2023/04/12 08:00:46;;;;;;;1.60;1.08;;;;;;;;;;4980188;28;20450;-74
2023/04/12 08:03:17;;;;;;;2.47;1.00;;;;;;;;;;4996602;28;20048;-73
2023/04/12 08:05:44;;;;;;;1.63;1.20;;;;;;;;;;4996600;28;20050;-74
2023/04/12 08:08:11;;;;;;;3.50;1.27;;;;;;;;;;5012543;28;20100;-74
2023/04/12 08:10:38;;;;;;;1.27;1.10;;;;;;;;;;4996281;28;20064;-74
2023/04/12 08:13:05;;;;;;;1.25;1.13;;;;;;;;;;5012560;28;20050;-74
2023/04/12 08:15:32;;;;;;;4.78;1.45;;;;;;;;;;4996155;28;20144;-73
2023/04/12 08:18:00;;;;;;;3.20;1.00;;;;;;;;;;4996297;28;20093;-74
2023/04/12 08:20:27;;;;;;;1.85;0.80;;;;;;;;;;4995030;28;20057;-73
2023/04/12 08:22:53;;;;;;;2.10;0.88;;;;;;;;;;4996220;28;20050;-74
2023/04/12 08:25:21;;;;;;;1.52;1.00;;;;;;;;;;4996085;28;20164;-73
2023/04/12 08:27:48;;;;;;;1.63;0.90;;;;;;;;;;4996152;28;20053;-74
2023/04/12 08:30:18;;;;;;;4.50;1.13;;;;;;;;;;4980221;28;20096;-74
2023/04/12 08:32:45;;;;;;;3.22;1.08;;;;;;;;;;4996111;28;20050;-74
2023/04/12 08:35:13;;;;;;;3.15;1.10;;;;;;;;;;4996256;28;20058;-74
2023/04/12 08:37:41;;;;;;;2.03;1.00;;;;;;;;;;4995903;28;20065;-74
2023/04/12 08:40:08;;;;;;;4.30;1.23;;;;;;;;;;4995804;28;20050;-73
2023/04/12 08:42:38;;;;;;;3.35;1.10;;;;;;;;;;4995605;28;20054;-73
2023/04/12 08:45:06;;;;;;;2.45;1.10;;;;;;;;;;4995797;28;20058;-73
2023/04/12 08:47:37;;;;;;;1.50;1.20;;;;;;;;;;4995640;28;20140;-74
2023/04/12 08:50:08;;;;;;;2.90;1.13;;;;;;;;;;4995401;28;20053;-74
2023/04/12 08:52:36;;;;;;;1.83;1.10;;;;;;;;;;4995428;28;20133;-73
2023/04/12 08:55:07;;;;;;;1.67;1.40;;;;;;;;;;4995628;28;20561;-73
2023/04/12 08:57:34;;;;;;;2.58;1.15;;;;;;;;;;5012882;28;20058;-74
2023/04/12 09:00:02;;;;;;;3.00;1.38;;;;;;;;;;4995589;28;20458;-74
2023/04/12 09:02:30;;;;;;;3.55;1.27;;;;;;;;;;4996016;28;20421;-74
2023/04/12 09:04:57;;;;;;;2.53;1.10;;;;;;;;;;4995574;28;20107;-73
2023/04/12 09:07:29;;;;;;;3.97;1.38;;;;;;;;;;4995560;28;20065;-74
2023/04/12 09:09:57;;;;;;;2.75;1.42;;;;;;;;;;4995824;28;20049;-73
2023/04/12 09:12:24;;;;;;;2.40;1.30;;;;;;;;;;5011356;28;20561;-73
2023/04/12 09:15:07;;;;;;;3.35;1.48;;;;;;;;;;4995116;28;20068;-73
2023/04/12 09:17:35;;;;;;;3.05;1.33;;;;;;;;;;4995338;28;20099;-74
2023/04/12 09:20:03;;;;;;;2.20;1.83;;;;;;;;;;4994923;28;20061;-73
2023/04/12 09:22:34;;;;;;;3.58;1.45;;;;;;;;;;4995016;28;20052;-73
2023/04/12 09:25:01;;;;;;;2.00;1.50;;;;;;;;;;4979267;28;20066;-73
2023/04/12 09:27:28;;;;;;;1.92;1.60;;;;;;;;;;4994992;28;20089;-73
2023/04/12 09:30:06;;;;;;;3.55;1.40;;;;;;;;;;4994786;28;20065;-73
2023/04/12 09:32:33;;;;;;;4.90;1.70;;;;;;;;;;4994500;28;20137;-74
2023/04/12 09:35:01;;;;;;;2.78;1.67;;;;;;;;;;4994881;28;20053;-73
2023/04/12 09:37:27;;;;;;;2.28;1.55;;;;;;;;;;4994718;28;20058;-74
2023/04/12 09:40:01;;;;;;;4.38;1.67;;;;;;;;;;4994701;28;20057;-73
2023/04/12 09:42:28;;;;;;;4.03;1.55;;;;;;;;;;4994553;28;20128;-74
2023/04/12 09:45:01;;;;;;;1.95;1.05;;;;;;;;;;4979992;28;20054;-73
2023/04/12 09:47:37;;;;;;;2.13;1.42;;;;;;;;;;4995106;28;20058;-74
2023/04/12 09:50:08;;;;;;;2.90;1.30;;;;;;;;;;4994596;28;20077;-73
2023/04/12 09:52:39;;;;;;;4.78;1.50;;;;;;;;;;4994534;28;20081;-74
2023/04/12 09:55:08;;;;;;;1.88;1.30;;;;;;;;;;5010929;28;20053;-73
2023/04/12 09:57:44;;;;;;;2.33;1.50;;;;;;;;;;4994568;28;20058;-73
2023/04/12 10:00:18;;;;;;;5.00;1.60;;;;;;;;;;4994529;28;20053;-73
2023/04/12 10:02:50;;;;;;;3.25;1.48;;;;;;;;;;4994699;28;20073;-73
2023/04/12 10:05:20;;;;;;;3.28;1.15;;;;;;;;;;4994851;28;20537;-74
2023/04/12 10:07:48;;;;;;;3.20;1.50;;;;;;;;;;4994420;28;20065;-73
2023/04/12 10:10:17;;;;;;;4.70;1.52;;;;;;;;;;4994001;28;20461;-73
2023/04/12 10:12:45;;;;;;;2.40;1.38;;;;;;;;;;4994037;28;20145;-74
2023/04/12 10:15:14;;;;;;;2.78;1.67;;;;;;;;;;4993721;28;20054;-73
2023/04/12 10:17:52;;;;;;;3.03;1.80;;;;;;;;;;5010354;28;20058;-73
2023/04/12 10:20:20;;;;;;;2.38;1.33;;;;;;;;;;4993851;28;20045;-73
2023/04/12 10:22:50;;;;;;;2.75;1.60;;;;;;;;;;4993983;28;20054;-73
2023/04/12 10:25:24;;;;;;;4.95;1.80;;;;;;;;;;4993893;28;20518;-73
2023/04/12 10:27:51;;;;;;;5.40;2.13;;;;;;;;;;4994041;28;20058;-73
2023/04/12 10:30:25;;;;;;;3.22;1.42;;;;;;;;;;4994021;28;20085;-73
2023/04/12 10:33:01;;;;;;;3.08;1.60;;;;;;;;;;5011286;28;20107;-73
2023/04/12 10:35:29;;;;;;;4.15;1.90;;;;;;;;;;4994089;28;20061;-75
2023/04/12 10:37:56;;;;;;;3.75;1.67;;;;;;;;;;4994146;28;20068;-74
2023/04/12 10:40:22;;;;;;;2.45;1.42;;;;;;;;;;4993765;28;20085;-74
2023/04/12 10:43:13;;;;;;;2.90;1.80;;;;;;;;;;4993532;28;20053;-73
2023/04/12 10:45:40;;;;;;;2.85;1.75;;;;;;;;;;4996402;28;20426;-74
2023/04/12 10:48:06;;;;;;;4.75;3.33;;;;;;;;;;4978021;28;20145;-73
2023/04/12 10:50:34;;;;;;;3.67;1.70;;;;;;;;;;4993674;28;20111;-73
2023/04/12 10:53:16;;;;;;;3.17;1.60;;;;;;;;;;4993545;28;20053;-73
2023/04/12 10:55:43;;;;;;;5.70;1.95;;;;;;;;;;4993646;28;20053;-73
2023/04/12 10:58:12;;;;;;;2.22;1.58;;;;;;;;;;4993823;28;20502;-74
2023/04/12 11:00:57;;;;;;;2.40;1.25;;;;;;;;;;4977738;28;20062;-73
2023/04/12 11:03:26;;;;;;;2.20;1.40;;;;;;;;;;4993682;28;20505;-73
2023/04/12 11:06:03;;;;;;;2.17;1.27;;;;;;;;;;4993492;28;20089;-73
2023/04/12 11:08:50;;;;;;;4.80;1.45;;;;;;;;;;5010243;28;20124;-73
2023/04/12 11:11:18;;;;;;;1.42;0.90;;;;;;;;;;4961145;28;20494;-73
2023/04/12 11:13:45;;;;;;;2.35;1.00;;;;;;;;;;4993411;28;20177;-73
2023/04/12 11:16:12;;;;;;;3.08;1.45;;;;;;;;;;4993202;28;20064;-73
2023/04/12 11:18:38;;;;;;;3.28;1.50;;;;;;;;;;4993542;28;20058;-73
2023/04/12 11:21:05;;;;;;;2.45;1.23;;;;;;;;;;4993118;28;20097;-73
2023/04/12 11:23:32;;;;;;;4.30;1.98;;;;;;;;;;4993146;28;20417;-73
2023/04/12 11:25:59;;;;;;;4.82;1.63;;;;;;;;;;4993314;28;20050;-73
2023/04/12 11:28:26;;;;;;;2.65;1.42;;;;;;;;;;4977484;28;20144;-73
2023/04/12 11:30:57;;;;;;;1.35;1.08;;;;;;;;;;4978506;28;20057;-73
2023/04/12 11:33:35;;;;;;;3.45;1.08;;;;;;;;;;4993068;28;20068;-73
2023/04/12 11:36:05;;;;;;;1.65;1.17;;;;;;;;;;4993440;28;20065;-73
2023/04/12 11:38:33;;;;;;;2.72;0.88;;;;;;;;;;4993290;28;20350;-73
2023/04/12 11:41:00;;;;;;;5.25;1.23;;;;;;;;;;4993086;28;20414;-73
2023/04/12 11:43:27;;;;;;;1.17;0.82;;;;;;;;;;5010956;28;20131;-73
2023/04/12 11:45:58;;;;;;;2.78;1.20;;;;;;;;;;4977152;28;20053;-73
2023/04/12 11:48:25;;;;;;;4.82;2.33;;;;;;;;;;4993132;28;20430;-73
2023/04/12 11:50:52;;;;;;;2.67;0.90;;;;;;;;;;4992782;28;20076;-73
2023/04/12 11:53:36;;;;;;;2.35;1.17;;;;;;;;;;4995388;28;20049;-73
2023/04/12 11:56:03;;;;;;;2.10;1.52;;;;;;;;;;4996401;28;20054;-73
2023/04/12 11:58:30;;;;;;;1.55;1.00;;;;;;;;;;4996551;28;20137;-73
2023/04/12 12:00:58;;;;;;;1.20;0.85;;;;;;;;;;4996548;28;20062;-73
2023/04/12 12:03:25;;;;;;;0.95;0.70;;;;;;;;;;4996834;28;20057;-73
2023/04/12 12:05:52;;;;;;;1.90;0.82;;;;;;;;;;4996778;28;20112;-73
2023/04/12 12:08:19;;;;;;;1.67;1.00;;;;;;;;;;5012875;28;20049;-73
2023/04/12 12:10:46;;;;;;;1.48;0.80;;;;;;;;;;4980200;28;20080;-73
2023/04/12 12:13:52;;;;;;;1.13;0.70;;;;;;;;;;4999719;28;20149;-73
2023/04/12 12:16:27;;;;;;;2.25;0.85;;;;;;;;;;4996242;28;20060;-73
2023/04/12 12:18:54;;;;;;;1.27;1.00;;;;;;;;;;4996292;28;20080;-74
2023/04/12 12:21:21;;;;;;;2.67;1.35;;;;;;;;;;4996005;28;20061;-73
2023/04/12 12:23:48;;;;;;;0.60;0.60;;;;;;;;;;4995867;28;20108;-73
2023/04/12 12:26:23;;;;;;;3.08;0.80;;;;;;;;;;4996296;28;20080;-73
2023/04/12 12:28:51;;;;;;;2.03;0.80;;;;;;;;;;5012375;28;20054;-73
2023/04/12 12:31:23;;;;;;;0.70;0.70;;;;;;;;;;4995886;28;20075;-73
2023/04/12 12:33:55;;;;;;;1.75;1.00;;;;;;;;;;4995872;28;20461;-73
2023/04/12 12:36:37;;;;;;;3.05;1.20;;;;;;;;;;5012176;28;20061;-73
2023/04/12 12:39:11;;;;;;;1.42;0.70;;;;;;;;;;4995884;28;20517;-73
2023/04/12 12:41:38;;;;;;;1.75;1.20;;;;;;;;;;5011749;28;20065;-73
2023/04/12 12:44:06;;;;;;;2.90;0.80;;;;;;;;;;4995644;28;20046;-73
2023/04/12 12:46:34;;;;;;;1.95;0.80;;;;;;;;;;4995765;28;20486;-73
2023/04/12 12:49:03;;;;;;;3.05;1.40;;;;;;;;;;4996342;28;20390;-72
2023/04/12 12:51:30;;;;;;;3.45;1.88;;;;;;;;;;4995373;28;20045;-73
2023/04/12 12:53:57;;;;;;;1.52;0.77;;;;;;;;;;4995424;28;20457;-73
2023/04/12 12:56:24;;;;;;;1.85;0.77;;;;;;;;;;4995564;28;20576;-73
2023/04/12 12:58:50;;;;;;;0.68;0.68;;;;;;;;;;4995510;28;20054;-73
2023/04/12 13:01:17;;;;;;;2.15;0.77;;;;;;;;;;4995623;28;20053;-73
2023/04/12 13:03:44;;;;;;;1.25;0.80;;;;;;;;;;4995320;28;20452;-74
2023/04/12 13:06:11;;;;;;;2.55;0.85;;;;;;;;;;4995164;28;20108;-73
2023/04/12 13:08:38;;;;;;;0.57;0.40;;;;;;;;;;4995450;28;20049;-73
2023/04/12 13:11:05;;;;;;;2.95;0.47;;;;;;;;;;4995091;28;20050;-73
2023/04/12 13:13:32;;;;;;;3.83;0.65;;;;;;;;;;5012417;28;20054;-72
2023/04/12 13:15:58;;;;;;;1.10;0.73;;;;;;;;;;4994987;28;20081;-73
2023/04/12 13:18:25;;;;;;;1.75;0.80;;;;;;;;;;4979099;28;20140;-73
2023/04/12 13:20:52;;;;;;;3.65;0.60;;;;;;;;;;4994937;28;20061;-73
2023/04/12 13:23:19;;;;;;;2.03;0.50;;;;;;;;;;4994925;28;20145;-73
2023/04/12 13:25:46;;;;;;;1.25;0.85;;;;;;;;;;4995003;28;20060;-73
2023/04/12 13:28:15;;;;;;;1.27;0.50;;;;;;;;;;4994743;28;20144;-73
2023/04/12 13:30:42;;;;;;;3.50;1.17;;;;;;;;;;4994729;28;20541;-73
2023/04/12 13:33:09;;;;;;;2.35;0.77;;;;;;;;;;4994665;28;20060;-73
2023/04/12 13:35:36;;;;;;;0.88;0.60;;;;;;;;;;4994795;28;20127;-73
2023/04/12 13:38:02;;;;;;;1.20;0.50;;;;;;;;;;4994930;28;20115;-74
2023/04/12 13:40:29;;;;;;;2.85;0.70;;;;;;;;;;4994641;28;20119;-73
2023/04/12 13:42:56;;;;;;;2.30;0.88;;;;;;;;;;4994514;28;20050;-73
2023/04/12 13:45:23;;;;;;;0.40;0.38;;;;;;;;;;4994630;28;20050;-73
2023/04/12 13:47:50;;;;;;;0.80;0.55;;;;;;;;;;4978658;28;20049;-73
2023/04/12 13:50:17;;;;;;;1.35;0.47;;;;;;;;;;4994512;28;20058;-73
2023/04/12 13:52:43;;;;;;;0.68;0.47;;;;;;;;;;4994409;28;20136;-73
2023/04/12 13:55:10;;;;;;;1.77;0.52;;;;;;;;;;4994605;28;20399;-73
2023/04/12 13:57:37;;;;;;;1.00;0.55;;;;;;;;;;4994270;28;20101;-73
2023/04/12 14:00:04;;;;;;;1.45;0.77;;;;;;;;;;5010322;28;20495;-73
2023/04/12 14:02:31;;;;;;;2.00;1.00;;;;;;;;;;4994132;28;20100;-73
2023/04/12 14:04:58;;;;;;;2.60;0.70;;;;;;;;;;4994476;28;20383;-73
2023/04/12 14:07:28;;;;;;;1.08;0.70;;;;;;;;;;4994241;28;20064;-73
2023/04/12 14:09:56;;;;;;;1.80;0.70;;;;;;;;;;4993919;28;20050;-73
2023/04/12 14:12:23;;;;;;;0.85;0.65;;;;;;;;;;4994044;28;20502;-73
2023/04/12 14:14:50;;;;;;;0.85;0.57;;;;;;;;;;4993855;28;20050;-73
2023/04/12 14:17:16;;;;;;;2.42;0.60;;;;;;;;;;4993575;28;20146;-73
2023/04/12 14:19:43;;;;;;;1.65;0.60;;;;;;;;;;4994150;28;20058;-73
2023/04/12 14:22:10;;;;;;;1.42;0.70;;;;;;;;;;4993745;28;20507;-73
2023/04/12 14:24:37;;;;;;;1.33;0.90;;;;;;;;;;4993815;28;20080;-73
2023/04/12 14:27:04;;;;;;;0.98;0.70;;;;;;;;;;4994230;28;20061;-73
2023/04/12 14:29:31;;;;;;;0.75;0.40;;;;;;;;;;5011394;28;20491;-73
2023/04/12 14:31:57;;;;;;;1.00;0.63;;;;;;;;;;4993642;28;20100;-73
2023/04/12 14:34:24;;;;;;;3.42;1.00;;;;;;;;;;4993812;28;20046;-73
2023/04/12 14:36:51;;;;;;;1.67;0.80;;;;;;;;;;4993680;28;20049;-73
2023/04/12 14:39:17;;;;;;;5.38;2.30;;;;;;;;;;4993710;28;20053;-74
2023/04/12 14:41:44;;;;;;;1.77;1.02;;;;;;;;;;4993601;28;20418;-73
2023/04/12 14:44:11;;;;;;;1.10;0.40;;;;;;;;;;4977631;28;20516;-73
2023/04/12 14:46:38;;;;;;;2.20;0.45;;;;;;;;;;4993818;28;20053;-73
2023/04/12 14:49:05;;;;;;;1.80;0.45;;;;;;;;;;4993664;28;20060;-73
2023/04/12 14:51:32;;;;;;;0.65;0.65;;;;;;;;;;4993374;28;20061;-73